地図

経路データ

SID SEASON NUMBER BASIN SUBBASIN NAME ISO_TIME NATURE LAT LON WMO_WIND WMO_PRES WMO_AGENCY TRACK_TYPE DIST2LAND LANDFALL IFLAG USA_AGENCY USA_ATCF_ID USA_LAT USA_LON USA_RECORD USA_STATUS USA_WIND USA_PRES USA_SSHS USA_R34_NE USA_R34_SE USA_R34_SW USA_R34_NW USA_R50_NE USA_R50_SE USA_R50_SW USA_R50_NW USA_R64_NE USA_R64_SE USA_R64_SW USA_R64_NW USA_POCI USA_ROCI USA_RMW USA_EYE TOKYO_LAT TOKYO_LON TOKYO_GRADE TOKYO_WIND TOKYO_PRES TOKYO_R50_DIR TOKYO_R50_LONG TOKYO_R50_SHORT TOKYO_R30_DIR TOKYO_R30_LONG TOKYO_R30_SHORT TOKYO_LAND CMA_LAT CMA_LON CMA_CAT CMA_WIND CMA_PRES HKO_LAT HKO_LON HKO_CAT HKO_WIND HKO_PRES NEWDELHI_LAT NEWDELHI_LON NEWDELHI_GRADE NEWDELHI_WIND NEWDELHI_PRES NEWDELHI_CI NEWDELHI_DP NEWDELHI_POCI REUNION_LAT REUNION_LON REUNION_TYPE REUNION_WIND REUNION_PRES REUNION_TNUM REUNION_CI REUNION_RMW REUNION_R34_NE REUNION_R34_SE REUNION_R34_SW REUNION_R34_NW REUNION_R50_NE REUNION_R50_SE REUNION_R50_SW REUNION_R50_NW REUNION_R64_NE REUNION_R64_SE REUNION_R64_SW REUNION_R64_NW BOM_LAT BOM_LON BOM_TYPE BOM_WIND BOM_PRES BOM_TNUM BOM_CI BOM_RMW BOM_R34_NE BOM_R34_SE BOM_R34_SW BOM_R34_NW BOM_R50_NE BOM_R50_SE BOM_R50_SW BOM_R50_NW BOM_R64_NE BOM_R64_SE BOM_R64_SW BOM_R64_NW BOM_ROCI BOM_POCI BOM_EYE BOM_POS_METHOD BOM_PRES_METHOD NADI_LAT NADI_LON NADI_CAT NADI_WIND NADI_PRES WELLINGTON_LAT WELLINGTON_LON WELLINGTON_WIND WELLINGTON_PRES DS824_LAT DS824_LON DS824_STAGE DS824_WIND DS824_PRES TD9636_LAT TD9636_LON TD9636_STAGE TD9636_WIND TD9636_PRES TD9635_LAT TD9635_LON TD9635_WIND TD9635_PRES TD9635_ROCI NEUMANN_LAT NEUMANN_LON NEUMANN_CLASS NEUMANN_WIND NEUMANN_PRES MLC_LAT MLC_LON MLC_CLASS MLC_WIND MLC_PRES USA_GUST BOM_GUST BOM_GUST_PER REUNION_GUST REUNION_GUST_PER USA_SEAHGT USA_SEARAD_NE USA_SEARAD_SE USA_SEARAD_SW USA_SEARAD_NW STORM_SPEED STORM_DIR
1990232N13141 1990 70 WP MM BECKY 1990-08-20 06:00:00 NR 13.4000 140.700 main 1642 1570 O_____________ jtwc_wp WP161990 13.4000 140.700 10 -1 16 285
1990232N13141 1990 70 WP MM BECKY 1990-08-20 09:00:00 NR 13.6055 139.927 main 1559 1491 P_____________ WP161990 13.6055 139.927 10 -1 15 289
1990232N13141 1990 70 WP MM BECKY 1990-08-20 12:00:00 NR 13.9000 139.200 main 1491 1437 O_____________ jtwc_wp WP161990 13.9000 139.200 10 -1 15 299
1990232N13141 1990 70 WP MM BECKY 1990-08-20 15:00:00 NR 14.3348 138.555 main 1437 1382 P_____________ WP161990 14.3348 138.555 10 -1 15 308
1990232N13141 1990 70 WP MM BECKY 1990-08-20 18:00:00 NR 14.8000 138.000 main 1382 1347 O_____________ jtwc_wp WP161990 14.8000 138.000 10 -1 13 311
1990232N13141 1990 70 WP MM BECKY 1990-08-20 21:00:00 NR 15.1797 137.542 main 1339 1306 P_____________ WP161990 15.1797 137.542 10 -1 11 309
1990232N13141 1990 70 WP MM BECKY 1990-08-21 00:00:00 NR 15.5000 137.100 main 1306 1263 O_____________ jtwc_wp WP161990 15.5000 137.100 10 -1 12 303
1990232N13141 1990 70 WP MM BECKY 1990-08-21 03:00:00 NR 15.8026 136.543 main 1253 1209 P_____________ WP161990 15.8026 136.543 10 -1 12 295
1990232N13141 1990 70 WP MM BECKY 1990-08-21 06:00:00 NR 16.0000 136.000 main 1209 1169 O_____________ jtwc_wp WP161990 16.0000 136.000 10 -1 10 284
1990232N13141 1990 70 WP MM BECKY 1990-08-21 09:00:00 NR 16.0373 135.570 main 1169 1129 P_____________ WP161990 16.0373 135.570 10 -1 8 270
1990232N13141 1990 70 WP MM BECKY 1990-08-21 12:00:00 NR 16.0000 135.200 main 1129 1099 O_____________ jtwc_wp WP161990 16.0000 135.200 10 -1 7 267
1990232N13141 1990 70 WP MM BECKY 1990-08-21 15:00:00 NR 15.9999 134.850 main 1099 1059 P_____________ WP161990 15.9999 134.850 10 -1 7 270
1990232N13141 1990 70 WP MM BECKY 1990-08-21 18:00:00 NR 16.0000 134.500 main 1059 1020 O_____________ jtwc_wp WP161990 16.0000 134.500 10 -1 7 270
1990232N13141 1990 70 WP MM BECKY 1990-08-21 21:00:00 NR 16.0000 134.100 main 1020 981 P_____________ WP161990 16.0000 134.100 10 -1 8 270
1990232N13141 1990 70 WP MM BECKY 1990-08-22 00:00:00 NR 16.0000 133.700 main 981 952 O_____________ jtwc_wp WP161990 16.0000 133.700 10 -1 7 269
1990232N13141 1990 70 WP MM BECKY 1990-08-22 03:00:00 NR 15.9924 133.342 main 942 914 P_____________ WP161990 15.9924 133.342 12 -1 7 270
1990232N13141 1990 70 WP MM BECKY 1990-08-22 06:00:00 NR 16.0000 133.000 main 914 885 O_____________ jtwc_wp WP161990 16.0000 133.000 15 -1 7 273
1990232N13141 1990 70 WP MM BECKY 1990-08-22 09:00:00 NR 16.0275 132.642 main 876 853 P_____________ WP161990 16.0275 132.642 15 -1 7 278
1990232N13141 1990 70 WP MM BECKY 1990-08-22 12:00:00 NR 16.1000 132.300 main 853 831 O_____________ jtwc_wp WP161990 16.1000 132.300 15 -1 7 289
1990232N13141 1990 70 WP MM BECKY 1990-08-22 15:00:00 NR 16.2424 131.993 main 831 817 P_____________ WP161990 16.2424 131.993 17 -1 7 298
1990232N13141 1990 70 WP MM BECKY 1990-08-22 18:00:00 NR 16.4000 131.700 main 817 797 O_____________ jtwc_wp WP161990 16.4000 131.700 20 -1 6 295
1990232N13141 1990 70 WP MM BECKY 1990-08-22 21:00:00 NR 16.4999 131.407 main 797 778 P_____________ WP161990 16.4999 131.407 20 -1 6 289
1990232N13141 1990 70 WP MM BECKY 1990-08-23 00:00:00 NR 16.6000 131.100 main 778 754 O_____________ jtwc_wp WP161990 16.6000 131.100 20 -1 7 291
1990232N13141 1990 70 WP MM BECKY 1990-08-23 03:00:00 NR 16.7500 130.743 main 749 725 P_____________ WP161990 16.7500 130.743 20 -1 7 294
1990232N13141 1990 70 WP MM BECKY 1990-08-23 06:00:00 NR 16.9000 130.400 main 725 702 O_____________ jtwc_wp WP161990 16.9000 130.400 20 -1 6 293
1990232N13141 1990 70 WP MM BECKY 1990-08-23 09:00:00 NR 17.0000 130.120 main 702 689 P_____________ WP161990 17.0000 130.120 22 -1 5 293
1990232N13141 1990 70 WP MM BECKY 1990-08-23 12:00:00 NR 17.1000 129.900 main 689 677 O_____________ jtwc_wp WP161990 17.1000 129.900 25 -1 5 304
1990232N13141 1990 70 WP MM BECKY 1990-08-23 15:00:00 NR 17.2500 129.728 main 677 674 P_____________ WP161990 17.2500 129.728 25 -1 4 317
1990232N13141 1990 70 WP MM BECKY 1990-08-23 18:00:00 NR 17.4000 129.600 main 680 672 O_____________ jtwc_wp WP161990 17.4000 129.600 25 -1 3 320
1990232N13141 1990 70 WP MM BECKY 1990-08-23 21:00:00 NR 17.5150 129.492 main 678 678 P_____________ WP161990 17.5150 129.492 25 -1 5 2
1990232N13141 1990 70 WP MM BECKY 1990-08-24 00:00:00 TS 17.9000 129.600 1002 tokyo main 713 713 OOO___________ jtwc_wp WP161990 17.6000 129.400 25 -1 18.0000 130.000 2 1002 0 0 0 19.0000 130.000 1 29 1000 4 8
1990232N13141 1990 70 WP MM BECKY 1990-08-24 03:00:00 TS 17.8850 129.544 main 705 690 PPP___________ WP161990 17.6500 129.300 27 -1 17.7025 129.752 2 1001 0 0 18.5375 129.825 1 29 999 2 233
1990232N13141 1990 70 WP MM BECKY 1990-08-24 06:00:00 TS 17.7600 129.410 1000 tokyo main 690 666 OOO___________ jtwc_wp WP161990 17.7000 129.200 30 -1 17.5000 129.500 2 1000 0 0 0 18.1000 129.600 1 29 998 4 234
1990232N13141 1990 70 WP MM BECKY 1990-08-24 09:00:00 TS 17.6550 129.214 main 666 643 PPP___________ WP161990 17.7850 129.100 30 -1 17.4550 129.243 2 1000 0 0 17.7251 129.300 1 29 998 4 252
1990232N13141 1990 70 WP MM BECKY 1990-08-24 12:00:00 TS 17.6333 129.000 1000 tokyo main 643 627 OOO___________ jtwc_wp WP161990 17.9000 129.000 30 -1 17.5000 129.000 2 1000 0 0 0 17.5000 129.000 1 29 998 4 271
1990232N13141 1990 70 WP MM BECKY 1990-08-24 15:00:00 TS 17.6591 128.823 main 634 626 PPP___________ WP161990 18.0274 128.922 30 -1 17.4975 128.777 2 999 0 0 17.4525 128.770 1 29 998 4 303
1990232N13141 1990 70 WP MM BECKY 1990-08-24 18:00:00 TS 17.8385 128.662 998 tokyo main 634 633 OOOO__________ jtwc_wp WP161990 18.2000 128.800 30 -1 17.6000 128.600 2 998 0 0 0 17.6000 128.600 1 29 998 18.3000 128.600 TD 25 995 6 329
1990232N13141 1990 70 WP MM BECKY 1990-08-24 21:00:00 TS 18.1366 128.528 main 641 633 PPPP__________ WP161990 18.4348 128.610 32 -1 17.8783 128.547 2 998 0 0 17.9048 128.537 1 29 998 18.5202 128.305 TD 25 995 8 332
1990232N13141 1990 70 WP MM BECKY 1990-08-25 00:00:00 TS 18.5067 128.293 998 tokyo main 633 592 OOOO__________ jtwc_wp WP161990 18.7000 128.300 35 0 18.3000 128.400 2 998 0 0 0 18.3000 128.400 1 29 998 18.8000 128.000 TD 25 995 10 321
1990232N13141 1990 70 WP MM BECKY 1990-08-25 03:00:00 TS 18.8967 127.886 35 996 tokyo main 592 542 POPP__________ WP161990 18.9498 127.875 35 0 18.8000 128.000 3 35 996 0 9 90 90 0 18.6726 128.010 1 33 996 19.1646 127.660 TD 30 992 11 308
1990232N13141 1990 70 WP MM BECKY 1990-08-25 06:00:00 TS 19.1750 127.375 35 996 tokyo main 544 486 OOOO__________ jtwc_wp WP161990 19.2000 127.300 35 0 19.0000 127.500 3 35 996 0 9 125 125 0 19.0000 127.500 2 38 995 19.5000 127.200 TS 35 990 11 297
1990232N13141 1990 70 WP MM BECKY 1990-08-25 09:00:00 TS 19.4161 126.810 main 486 428 PPPP__________ WP161990 19.5025 126.596 40 0 19.1471 127.048 3 37 995 0 9 187 112 19.2671 127.045 2 38 993 19.7476 126.553 TS 37 987 12 287
1990232N13141 1990 70 WP MM BECKY 1990-08-25 12:00:00 TS 19.5250 126.150 40 994 tokyo main 428 344 OOOO__________ jtwc_wp WP161990 19.7000 125.800 45 0 19.2000 126.500 3 40 994 0 8 250 100 0 19.4000 126.500 2 38 992 19.8000 125.800 TS 40 985 13 271
1990232N13141 1990 70 WP MM BECKY 1990-08-25 15:00:00 TS 19.4350 125.381 main 344 258 PPPP__________ WP161990 19.6677 124.969 47 0 19.1751 125.710 3 42 993 0 8 250 100 19.3448 125.810 2 38 991 19.5525 125.034 TS 40 985 15 259
1990232N13141 1990 70 WP MM BECKY 1990-08-25 18:00:00 TS 19.2250 124.575 45 992 tokyo main 258 171 OOOO__________ jtwc_wp WP161990 19.5000 124.200 50 0 19.0000 124.800 3 45 992 0 8 250 100 0 19.2000 125.000 2 38 990 19.2000 124.300 TS 40 985 16 254
1990232N13141 1990 70 WP MM BECKY 1990-08-25 21:00:00 TS 18.9982 123.796 main 171 95 PPPP__________ WP161990 19.3219 123.613 52 0 18.5855 123.831 3 47 988 0 8 250 100 19.1005 124.070 2 43 987 18.9846 123.670 TS 45 982 15 252
1990232N13141 1990 70 WP MM BECKY 1990-08-26 00:00:00 TS 18.7750 123.100 50 985 tokyo main 95 38 OOOO__________ jtwc_wp WP161990 19.1000 123.100 55 0 18.2000 123.000 4 50 985 0 8 250 100 0 19.0000 123.200 3 48 985 18.8000 123.100 STS 50 980 12 253
1990232N13141 1990 70 WP MM BECKY 1990-08-26 03:00:00 TS 18.6408 122.558 main 38 11 PPPP__________ WP161990 18.8573 122.550 57 0 18.1541 122.548 4 52 982 0 8 275 150 18.9593 122.598 3 53 982 18.5923 122.535 STS 52 977 10 254
1990232N13141 1990 70 WP MM BECKY 1990-08-26 06:00:00 TS 18.5000 122.075 55 980 tokyo main 11 0 OOOO__________ jtwc_wp WP161990 18.6000 122.000 60 0 18.2000 122.200 4 55 980 9 50 50 8 300 200 0 18.8000 122.100 3 58 980 18.4000 122.000 STS 55 975 11 247
1990232N13141 1990 70 WP MM BECKY 1990-08-26 09:00:00 TS 18.2330 121.539 main 0 0 PPPP__________ WP161990 18.3273 121.450 62 0 18.1000 121.672 4 52 982 9 8 275 225 18.2699 121.541 3 58 977 18.2348 121.493 STS 52 977 11 244
1990232N13141 1990 70 WP MM BECKY 1990-08-26 12:00:00 TS 18.0000 121.000 50 985 tokyo main 0 0 OOOO__________ jtwc_wp WP161990 18.1000 120.900 65 1 18.0000 121.100 4 50 985 0 9 250 250 0 17.8000 121.000 3 58 975 18.1000 121.000 STS 50 980 11 254
1990232N13141 1990 70 WP MM BECKY 1990-08-26 15:00:00 TS 17.9430 120.473 main 0 0 PPPP__________ WP161990 17.9699 120.343 65 1 17.9848 120.550 4 50 985 0 9 237 237 17.8248 120.493 3 58 975 17.9923 120.508 STS 50 980 10 267
1990232N13141 1990 70 WP MM BECKY 1990-08-26 18:00:00 TS 17.9500 119.950 50 985 tokyo main 52 52 OOOO__________ jtwc_wp WP161990 17.9000 119.800 65 1 18.0000 120.000 4 50 985 0 9 225 225 0 18.0000 120.000 3 58 975 17.9000 120.000 STS 50 980 10 269
1990232N13141 1990 70 WP MM BECKY 1990-08-26 21:00:00 TS 17.9197 119.438 main 101 101 PPPP__________ WP161990 17.8423 119.300 65 1 18.0148 119.458 4 52 982 0 9 250 250 18.0297 119.523 3 58 975 17.7923 119.472 STS 52 977 10 266
1990232N13141 1990 70 WP MM BECKY 1990-08-27 00:00:00 TS 17.8750 118.900 55 980 tokyo main 152 152 OOOO__________ jtwc_wp WP161990 17.8000 118.800 65 1 18.0000 118.900 4 55 980 9 60 60 9 275 275 0 18.0000 119.000 3 58 975 17.7000 118.900 STS 55 975 11 263
1990232N13141 1990 70 WP MM BECKY 1990-08-27 03:00:00 TS 17.7961 118.304 main 213 213 PPPP__________ WP161990 17.7423 118.272 65 1 17.9074 118.307 4 57 977 9 60 60 9 275 275 17.9000 118.372 3 58 975 17.6349 118.265 STS 60 970 12 263
1990232N13141 1990 70 WP MM BECKY 1990-08-27 06:00:00 TS 17.7250 117.675 60 975 tokyo main 272 272 OOOO__________ jtwc_wp WP161990 17.7000 117.700 65 1 17.8000 117.700 4 60 975 9 60 60 9 275 275 0 17.8000 117.700 3 58 975 17.6000 117.600 T 65 965 12 265
1990232N13141 1990 70 WP MM BECKY 1990-08-27 09:00:00 TS 17.7010 117.045 main 336 336 PPPP__________ WP161990 17.6924 117.065 67 1 17.7347 117.108 4 62 972 9 75 75 9 287 287 17.7922 117.058 3 63 972 17.5848 116.950 T 67 962 12 269
1990232N13141 1990 70 WP MM BECKY 1990-08-27 12:00:00 TS 17.7000 116.400 65 970 tokyo main 394 394 OOOO__________ jtwc_wp WP161990 17.7000 116.400 70 1 17.7000 116.500 5 65 970 9 90 90 9 300 300 0 17.8000 116.400 4 68 970 17.6000 116.300 T 70 960 12 270
1990232N13141 1990 70 WP MM BECKY 1990-08-27 15:00:00 TS 17.7055 115.736 main 463 463 PPPP__________ WP161990 17.6998 115.750 70 1 17.7073 115.865 5 65 970 9 90 90 9 275 275 17.7651 115.678 4 68 970 17.6498 115.650 T 67 962 13 270
1990232N13141 1990 70 WP MM BECKY 1990-08-27 18:00:00 TS 17.7000 115.075 65 970 tokyo main 481 425 OOOO__________ jtwc_wp WP161990 17.7000 115.100 70 1 17.7000 115.200 5 65 970 9 90 90 9 250 250 0 17.7000 115.000 4 68 970 17.7000 115.000 T 65 965 12 267
1990232N13141 1990 70 WP MM BECKY 1990-08-27 21:00:00 TS 17.6479 114.444 main 422 378 PPPP__________ WP161990 17.6998 114.450 70 1 17.5999 114.500 5 67 967 9 95 95 9 275 275 17.5844 114.492 4 68 970 17.7074 114.335 T 67 962 12 265
1990232N13141 1990 70 WP MM BECKY 1990-08-28 00:00:00 TS 17.6000 113.825 70 965 tokyo main 370 315 OOOO__________ jtwc_wp WP161990 17.7000 113.800 70 1 17.5000 113.800 5 70 965 9 100 100 9 300 300 0 17.5000 114.000 4 68 970 17.7000 113.700 T 70 960 12 268
1990232N13141 1990 70 WP MM BECKY 1990-08-28 03:00:00 TS 17.6029 113.200 main 315 259 PPPP__________ WP161990 17.6999 113.143 70 1 17.4772 113.143 5 70 965 9 100 100 9 300 300 17.5351 113.365 4 68 967 17.6996 113.150 T 70 960 12 271
1990232N13141 1990 70 WP MM BECKY 1990-08-28 06:00:00 TS 17.6250 112.575 70 965 tokyo main 259 207 OOOO__________ jtwc_wp WP161990 17.7000 112.500 70 1 17.5000 112.500 5 70 965 9 100 100 9 300 300 0 17.6000 112.700 4 68 965 17.7000 112.600 T 70 960 12 271
1990232N13141 1990 70 WP MM BECKY 1990-08-28 09:00:00 TS 17.6336 111.948 main 199 162 PPPP__________ WP161990 17.6999 111.878 70 1 17.5348 111.850 5 70 965 9 100 100 9 300 300 17.5996 112.107 4 68 965 17.7000 111.958 T 70 960 12 271
1990232N13141 1990 70 WP MM BECKY 1990-08-28 12:00:00 TS 17.6500 111.325 70 965 tokyo main 146 115 OOOO__________ jtwc_wp WP161990 17.7000 111.300 70 1 17.6000 111.200 5 70 965 9 100 100 9 300 300 0 17.6000 111.500 4 68 965 17.7000 111.300 T 70 960 12 272
1990232N13141 1990 70 WP MM BECKY 1990-08-28 15:00:00 TS 17.6816 110.720 main 107 70 PPPP__________ WP161990 17.6921 110.807 70 1 17.6924 110.543 5 70 965 9 100 100 9 300 300 17.6422 110.830 4 68 965 17.6997 110.700 T 70 960 12 274
1990232N13141 1990 70 WP MM BECKY 1990-08-28 18:00:00 TS 17.7250 110.100 70 965 tokyo main 70 44 OOOO__________ jtwc_wp WP161990 17.7000 110.300 70 1 17.8000 109.900 5 70 965 9 100 100 9 300 300 0 17.7000 110.100 4 68 965 17.7000 110.100 T 70 960 12 275
1990232N13141 1990 70 WP MM BECKY 1990-08-28 21:00:00 TS 17.7825 109.421 main 45 45 PPPP__________ WP161990 17.7574 109.680 70 1 17.9147 109.293 5 67 967 9 90 90 9 275 275 17.7579 109.263 4 68 965 17.6999 109.450 T 70 960 13 274
1990232N13141 1990 70 WP MM BECKY 1990-08-29 00:00:00 TS 17.8250 108.750 65 970 tokyo main 70 70 OOOO__________ jtwc_wp WP161990 17.8000 109.000 70 1 18.0000 108.700 5 65 970 9 80 80 9 250 250 0 17.8000 108.500 4 68 965 17.7000 108.800 T 70 960 12 272
1990232N13141 1990 70 WP MM BECKY 1990-08-29 03:00:00 TS 17.8179 108.146 main 100 94 PPPP__________ WP161990 17.7573 108.307 70 1 18.0149 108.085 5 62 972 9 80 80 9 250 250 17.7993 108.012 4 68 965 17.6999 108.178 T 67 962 11 269
1990232N13141 1990 70 WP MM BECKY 1990-08-29 06:00:00 TS 17.8000 107.575 60 975 tokyo main 94 61 OOOO__________ jtwc_wp WP161990 17.7000 107.600 70 1 18.0000 107.500 4 60 975 9 80 80 9 250 250 0 17.8000 107.600 4 68 965 17.7000 107.600 T 65 965 11 270
1990232N13141 1990 70 WP MM BECKY 1990-08-29 09:00:00 TS 17.8158 107.039 main 54 10 PPPP__________ WP161990 17.6921 106.915 67 1 18.0296 107.008 4 57 977 9 80 80 9 250 250 17.8497 107.095 4 63 970 17.6918 107.137 T 62 967 11 271
1990232N13141 1990 70 WP MM BECKY 1990-08-29 12:00:00 TS 17.8250 106.450 55 980 tokyo main 10 0 OOOO__________ jtwc_wp WP161990 17.7000 106.200 65 1 18.0000 106.500 4 55 980 9 80 80 9 250 250 0 17.9000 106.500 3 58 975 17.7000 106.600 STS 60 970 13 269
1990232N13141 1990 70 WP MM BECKY 1990-08-29 15:00:00 TS 17.7839 105.708 main 0 0 PPPP__________ WP161990 17.6923 105.422 62 0 17.8076 105.865 4 50 982 9 9 200 200 17.9002 105.765 3 58 977 17.7355 105.780 STS 55 972 15 267
1990232N13141 1990 70 WP MM BECKY 1990-08-29 18:00:00 TS 17.7500 104.925 45 985 tokyo main 0 0 OOOO__________ jtwc_wp WP161990 17.7000 104.600 60 0 17.6000 105.200 3 45 985 0 9 150 150 0 17.9000 105.000 3 58 980 17.8000 104.900 STS 50 975 14 270
1990232N13141 1990 70 WP MM BECKY 1990-08-29 21:00:00 TS 17.7816 104.203 main 0 0 PPPP__________ WP161990 17.7196 103.765 55 0 17.5199 104.578 3 990 0 9 17.9499 104.305 3 48 985 17.9371 104.163 STS 42 980 13 273
1990232N13141 1990 70 WP MM BECKY 1990-08-30 00:00:00 TS 17.8250 103.525 996 tokyo main 0 0 OOOO__________ jtwc_wp WP161990 17.8000 102.900 50 0 17.5000 104.000 2 996 0 0 0 18.0000 103.700 2 38 990 18.0000 103.500 TS 35 985 12 273
1990232N13141 1990 70 WP MM BECKY 1990-08-30 03:00:00 TS 17.8366 102.898 main 0 0 PPPP__________ WP161990 17.9734 102.008 45 0 17.4977 103.482 2 997 0 0 18.0126 103.215 2 33 992 17.8629 102.887 TS 30 990 12 270
1990232N13141 1990 70 WP MM BECKY 1990-08-30 06:00:00 TS 17.8250 102.300 998 tokyo main 0 OOOO__________ jtwc_wp WP161990 18.2000 101.100 40 0 17.5000 103.000 2 998 0 0 0 18.0000 102.800 1 29 995 17.6000 102.300 TD 25 995 11 269

デジタル台風データ・検索

IBTrACS Databaseについて

本データベースは、米国NOAAが公開する1842年以降の世界の熱帯低気圧のベストトラックデータアーカイブInternational Best Track Archive for Climate Stewardship (IBTrACS)を、ウェブで閲覧しやすい形式に変換したものです。

最終更新日:2021-10-21